sensor_id;sensor_type;location;lat;lon;timestamp;temperature;humidity
59923;DHT22;45778;51.142;3.732;2022-11-14T00:00:27;5.70;99.90
59923;DHT22;45778;51.142;3.732;2022-11-14T00:02:53;5.60;99.90
59923;DHT22;45778;51.142;3.732;2022-11-14T00:05:19;5.60;99.90
59923;DHT22;45778;51.142;3.732;2022-11-14T00:07:44;5.60;99.90
59923;DHT22;45778;51.142;3.732;2022-11-14T00:10:16;5.40;99.90
59923;DHT22;45778;51.142;3.732;2022-11-14T00:12:41;5.40;99.90
59923;DHT22;45778;51.142;3.732;2022-11-14T00:15:08;5.50;99.90
59923;DHT22;45778;51.142;3.732;2022-11-14T00:17:34;5.40;99.90
59923;DHT22;45778;51.142;3.732;2022-11-14T00:20:00;5.50;99.90
59923;DHT22;45778;51.142;3.732;2022-11-14T00:22:25;5.60;99.90
59923;DHT22;45778;51.142;3.732;2022-11-14T00:24:51;5.60;99.90
59923;DHT22;45778;51.142;3.732;2022-11-14T00:27:17;5.60;99.90
59923;DHT22;45778;51.142;3.732;2022-11-14T00:29:42;5.70;99.90
59923;DHT22;45778;51.142;3.732;2022-11-14T00:32:08;5.70;99.90
59923;DHT22;45778;51.142;3.732;2022-11-14T00:34:33;5.80;99.90
59923;DHT22;45778;51.142;3.732;2022-11-14T00:36:59;5.80;99.90
59923;DHT22;45778;51.142;3.732;2022-11-14T00:39:25;5.60;99.90
59923;DHT22;45778;51.142;3.732;2022-11-14T00:41:51;5.50;99.90
59923;DHT22;45778;51.142;3.732;2022-11-14T00:44:16;5.50;99.90
59923;DHT22;45778;51.142;3.732;2022-11-14T00:46:42;5.50;99.90
59923;DHT22;45778;51.142;3.732;2022-11-14T00:49:07;5.30;99.90
59923;DHT22;45778;51.142;3.732;2022-11-14T00:51:33;5.20;99.90
59923;DHT22;45778;51.142;3.732;2022-11-14T00:53:58;5.20;99.90
59923;DHT22;45778;51.142;3.732;2022-11-14T00:56:24;5.20;99.90
59923;DHT22;45778;51.142;3.732;2022-11-14T00:58:50;5.20;99.90
59923;DHT22;45778;51.142;3.732;2022-11-14T01:01:16;5.20;99.90
59923;DHT22;45778;51.142;3.732;2022-11-14T01:03:41;5.30;99.90
59923;DHT22;45778;51.142;3.732;2022-11-14T01:06:08;5.40;99.90
59923;DHT22;45778;51.142;3.732;2022-11-14T01:08:35;5.30;99.90
59923;DHT22;45778;51.142;3.732;2022-11-14T01:11:11;5.20;99.90
59923;DHT22;45778;51.142;3.732;2022-11-14T01:13:37;5.20;99.90
59923;DHT22;45778;51.142;3.732;2022-11-14T01:16:03;5.20;99.90
59923;DHT22;45778;51.142;3.732;2022-11-14T01:18:29;5.20;99.90
59923;DHT22;45778;51.142;3.732;2022-11-14T01:20:55;5.20;99.90
59923;DHT22;45778;51.142;3.732;2022-11-14T01:23:21;5.30;99.90
59923;DHT22;45778;51.142;3.732;2022-11-14T01:25:46;5.10;99.90
59923;DHT22;45778;51.142;3.732;2022-11-14T01:28:15;5.00;99.90
59923;DHT22;45778;51.142;3.732;2022-11-14T01:30:40;4.90;99.90
59923;DHT22;45778;51.142;3.732;2022-11-14T01:33:06;4.80;99.90
59923;DHT22;45778;51.142;3.732;2022-11-14T01:35:34;4.60;99.90
59923;DHT22;45778;51.142;3.732;2022-11-14T01:38:00;4.50;99.90
59923;DHT22;45778;51.142;3.732;2022-11-14T01:40:26;4.60;99.90
59923;DHT22;45778;51.142;3.732;2022-11-14T01:43:23;4.50;99.90
59923;DHT22;45778;51.142;3.732;2022-11-14T01:48:41;4.40;99.90
59923;DHT22;45778;51.142;3.732;2022-11-14T01:54:03;4.50;99.90
59923;DHT22;45778;51.142;3.732;2022-11-14T01:56:36;4.50;99.90
59923;DHT22;45778;51.142;3.732;2022-11-14T01:59:11;4.70;99.90
59923;DHT22;45778;51.142;3.732;2022-11-14T02:01:43;4.60;99.90
59923;DHT22;45778;51.142;3.732;2022-11-14T02:04:11;4.60;99.90
59923;DHT22;45778;51.142;3.732;2022-11-14T02:06:39;4.60;99.90
59923;DHT22;45778;51.142;3.732;2022-11-14T02:09:06;4.60;99.90
59923;DHT22;45778;51.142;3.732;2022-11-14T02:11:36;4.70;99.90
59923;DHT22;45778;51.142;3.732;2022-11-14T02:14:03;4.80;99.90
59923;DHT22;45778;51.142;3.732;2022-11-14T02:16:29;4.80;99.90
59923;DHT22;45778;51.142;3.732;2022-11-14T02:18:54;4.70;99.90
59923;DHT22;45778;51.142;3.732;2022-11-14T02:21:20;4.60;99.90
59923;DHT22;45778;51.142;3.732;2022-11-14T02:23:46;4.60;99.90
59923;DHT22;45778;51.142;3.732;2022-11-14T02:26:11;4.60;99.90
59923;DHT22;45778;51.142;3.732;2022-11-14T02:28:37;4.60;99.90
59923;DHT22;45778;51.142;3.732;2022-11-14T02:31:03;4.60;99.90
59923;DHT22;45778;51.142;3.732;2022-11-14T02:33:28;4.60;99.90
59923;DHT22;45778;51.142;3.732;2022-11-14T02:35:54;4.70;99.90
59923;DHT22;45778;51.142;3.732;2022-11-14T02:38:19;4.80;99.90
59923;DHT22;45778;51.142;3.732;2022-11-14T02:40:45;4.70;99.90
59923;DHT22;45778;51.142;3.732;2022-11-14T02:43:11;4.70;99.90
59923;DHT22;45778;51.142;3.732;2022-11-14T02:45:36;4.70;99.90
59923;DHT22;45778;51.142;3.732;2022-11-14T02:48:02;4.70;99.90
59923;DHT22;45778;51.142;3.732;2022-11-14T02:50:28;4.50;99.90
59923;DHT22;45778;51.142;3.732;2022-11-14T02:52:54;4.60;99.90
59923;DHT22;45778;51.142;3.732;2022-11-14T02:55:20;4.40;99.90
59923;DHT22;45778;51.142;3.732;2022-11-14T02:57:46;4.30;99.90
59923;DHT22;45778;51.142;3.732;2022-11-14T03:00:12;4.20;99.90
59923;DHT22;45778;51.142;3.732;2022-11-14T03:02:37;4.20;99.90
59923;DHT22;45778;51.142;3.732;2022-11-14T03:05:03;4.20;99.90
59923;DHT22;45778;51.142;3.732;2022-11-14T03:07:29;4.30;99.90
59923;DHT22;45778;51.142;3.732;2022-11-14T03:09:55;4.30;99.90
59923;DHT22;45778;51.142;3.732;2022-11-14T03:12:20;4.40;99.90
59923;DHT22;45778;51.142;3.732;2022-11-14T03:14:46;4.40;99.90
59923;DHT22;45778;51.142;3.732;2022-11-14T03:17:12;4.40;99.90
59923;DHT22;45778;51.142;3.732;2022-11-14T03:19:37;4.40;99.90
59923;DHT22;45778;51.142;3.732;2022-11-14T03:22:03;4.50;99.90
59923;DHT22;45778;51.142;3.732;2022-11-14T03:24:29;4.50;99.90
59923;DHT22;45778;51.142;3.732;2022-11-14T03:26:54;4.40;99.90
59923;DHT22;45778;51.142;3.732;2022-11-14T03:29:20;4.30;99.90
59923;DHT22;45778;51.142;3.732;2022-11-14T03:31:46;4.30;99.90
59923;DHT22;45778;51.142;3.732;2022-11-14T03:34:11;4.30;99.90
59923;DHT22;45778;51.142;3.732;2022-11-14T03:36:37;4.30;99.90
59923;DHT22;45778;51.142;3.732;2022-11-14T03:39:04;4.30;99.90
59923;DHT22;45778;51.142;3.732;2022-11-14T03:41:30;4.30;99.90
59923;DHT22;45778;51.142;3.732;2022-11-14T03:43:56;4.20;99.90
59923;DHT22;45778;51.142;3.732;2022-11-14T03:46:21;4.20;99.90
59923;DHT22;45778;51.142;3.732;2022-11-14T03:48:47;4.20;99.90
59923;DHT22;45778;51.142;3.732;2022-11-14T03:51:12;4.10;99.90
59923;DHT22;45778;51.142;3.732;2022-11-14T03:53:38;4.10;99.90
59923;DHT22;45778;51.142;3.732;2022-11-14T03:56:04;4.10;99.90
59923;DHT22;45778;51.142;3.732;2022-11-14T03:58:30;4.00;99.90
59923;DHT22;45778;51.142;3.732;2022-11-14T04:00:55;4.00;99.90
59923;DHT22;45778;51.142;3.732;2022-11-14T04:03:22;3.90;99.90
59923;DHT22;45778;51.142;3.732;2022-11-14T04:05:48;4.00;99.90
59923;DHT22;45778;51.142;3.732;2022-11-14T04:08:14;4.00;99.90
59923;DHT22;45778;51.142;3.732;2022-11-14T04:10:40;4.10;99.90
59923;DHT22;45778;51.142;3.732;2022-11-14T04:13:07;4.20;99.90
59923;DHT22;45778;51.142;3.732;2022-11-14T04:15:33;4.10;99.90
59923;DHT22;45778;51.142;3.732;2022-11-14T04:17:59;4.10;99.90
59923;DHT22;45778;51.142;3.732;2022-11-14T04:20:25;4.10;99.90
59923;DHT22;45778;51.142;3.732;2022-11-14T04:22:50;4.00;99.90
59923;DHT22;45778;51.142;3.732;2022-11-14T04:25:16;4.00;99.90
59923;DHT22;45778;51.142;3.732;2022-11-14T04:27:42;4.00;99.90
59923;DHT22;45778;51.142;3.732;2022-11-14T04:30:08;4.10;99.90
59923;DHT22;45778;51.142;3.732;2022-11-14T04:32:34;4.10;99.90
59923;DHT22;45778;51.142;3.732;2022-11-14T04:34:59;4.00;99.90
59923;DHT22;45778;51.142;3.732;2022-11-14T04:37:25;4.00;99.90
59923;DHT22;45778;51.142;3.732;2022-11-14T04:39:50;3.90;99.90
59923;DHT22;45778;51.142;3.732;2022-11-14T04:42:16;3.60;99.90
59923;DHT22;45778;51.142;3.732;2022-11-14T04:44:42;3.60;99.90
59923;DHT22;45778;51.142;3.732;2022-11-14T04:47:07;3.60;99.90
59923;DHT22;45778;51.142;3.732;2022-11-14T04:49:33;3.50;99.90
59923;DHT22;45778;51.142;3.732;2022-11-14T04:51:59;3.60;99.90
59923;DHT22;45778;51.142;3.732;2022-11-14T04:54:24;3.50;99.90
59923;DHT22;45778;51.142;3.732;2022-11-14T04:56:50;3.60;99.90
59923;DHT22;45778;51.142;3.732;2022-11-14T04:59:15;3.40;99.90
59923;DHT22;45778;51.142;3.732;2022-11-14T05:01:41;3.30;99.90
59923;DHT22;45778;51.142;3.732;2022-11-14T05:04:07;3.30;99.90
59923;DHT22;45778;51.142;3.732;2022-11-14T05:06:32;3.30;99.90
59923;DHT22;45778;51.142;3.732;2022-11-14T05:08:58;3.30;99.90
59923;DHT22;45778;51.142;3.732;2022-11-14T05:11:23;3.30;99.90
59923;DHT22;45778;51.142;3.732;2022-11-14T05:13:49;3.30;99.90
59923;DHT22;45778;51.142;3.732;2022-11-14T05:16:15;3.40;99.90
59923;DHT22;45778;51.142;3.732;2022-11-14T05:18:40;3.30;99.90
59923;DHT22;45778;51.142;3.732;2022-11-14T05:21:09;3.50;99.90
59923;DHT22;45778;51.142;3.732;2022-11-14T05:23:35;3.60;99.90
59923;DHT22;45778;51.142;3.732;2022-11-14T05:26:02;3.80;99.90
59923;DHT22;45778;51.142;3.732;2022-11-14T05:28:28;3.90;99.90
59923;DHT22;45778;51.142;3.732;2022-11-14T05:31:05;4.10;99.90
59923;DHT22;45778;51.142;3.732;2022-11-14T05:33:31;4.10;99.90
59923;DHT22;45778;51.142;3.732;2022-11-14T05:36:05;4.30;99.90
59923;DHT22;45778;51.142;3.732;2022-11-14T05:38:31;4.40;99.90
59923;DHT22;45778;51.142;3.732;2022-11-14T05:40:57;4.40;99.90
59923;DHT22;45778;51.142;3.732;2022-11-14T05:43:23;4.50;99.90
59923;DHT22;45778;51.142;3.732;2022-11-14T05:45:49;4.50;99.90
59923;DHT22;45778;51.142;3.732;2022-11-14T05:48:15;4.50;99.90
59923;DHT22;45778;51.142;3.732;2022-11-14T05:50:40;4.60;99.90
59923;DHT22;45778;51.142;3.732;2022-11-14T05:53:06;4.50;99.90
59923;DHT22;45778;51.142;3.732;2022-11-14T05:55:31;4.60;99.90
59923;DHT22;45778;51.142;3.732;2022-11-14T05:57:57;4.60;99.90
59923;DHT22;45778;51.142;3.732;2022-11-14T06:00:24;4.50;99.90
59923;DHT22;45778;51.142;3.732;2022-11-14T06:02:54;4.60;99.90
59923;DHT22;45778;51.142;3.732;2022-11-14T06:05:21;4.70;99.90
59923;DHT22;45778;51.142;3.732;2022-11-14T06:07:46;4.60;99.90
59923;DHT22;45778;51.142;3.732;2022-11-14T06:10:12;4.50;99.90
59923;DHT22;45778;51.142;3.732;2022-11-14T06:12:39;4.50;99.90
59923;DHT22;45778;51.142;3.732;2022-11-14T06:15:05;4.60;99.90
59923;DHT22;45778;51.142;3.732;2022-11-14T06:17:30;4.60;99.90
59923;DHT22;45778;51.142;3.732;2022-11-14T06:19:56;4.70;99.90
59923;DHT22;45778;51.142;3.732;2022-11-14T06:22:22;4.60;99.90
59923;DHT22;45778;51.142;3.732;2022-11-14T06:24:47;4.50;99.90
59923;DHT22;45778;51.142;3.732;2022-11-14T06:27:13;4.40;99.90
59923;DHT22;45778;51.142;3.732;2022-11-14T06:29:39;4.40;99.90
59923;DHT22;45778;51.142;3.732;2022-11-14T06:32:04;4.40;99.90
59923;DHT22;45778;51.142;3.732;2022-11-14T06:34:31;4.40;99.90
59923;DHT22;45778;51.142;3.732;2022-11-14T06:36:56;4.30;99.90
59923;DHT22;45778;51.142;3.732;2022-11-14T06:39:22;4.10;99.90
59923;DHT22;45778;51.142;3.732;2022-11-14T06:41:47;4.10;99.90
59923;DHT22;45778;51.142;3.732;2022-11-14T06:44:13;4.30;99.90
59923;DHT22;45778;51.142;3.732;2022-11-14T06:46:39;4.20;99.90
59923;DHT22;45778;51.142;3.732;2022-11-14T06:49:05;4.20;99.90
59923;DHT22;45778;51.142;3.732;2022-11-14T06:51:30;4.20;99.90
59923;DHT22;45778;51.142;3.732;2022-11-14T06:53:57;4.20;99.90
59923;DHT22;45778;51.142;3.732;2022-11-14T06:56:23;4.20;99.90
59923;DHT22;45778;51.142;3.732;2022-11-14T06:58:49;4.20;99.90
59923;DHT22;45778;51.142;3.732;2022-11-14T07:01:17;4.20;99.90
59923;DHT22;45778;51.142;3.732;2022-11-14T07:03:43;4.10;99.90
59923;DHT22;45778;51.142;3.732;2022-11-14T07:06:11;4.20;99.90
59923;DHT22;45778;51.142;3.732;2022-11-14T07:08:37;4.20;99.90
59923;DHT22;45778;51.142;3.732;2022-11-14T07:11:04;4.10;99.90
59923;DHT22;45778;51.142;3.732;2022-11-14T07:13:31;4.10;99.90
59923;DHT22;45778;51.142;3.732;2022-11-14T07:15:57;4.00;99.90
59923;DHT22;45778;51.142;3.732;2022-11-14T07:18:22;3.90;99.90
59923;DHT22;45778;51.142;3.732;2022-11-14T07:20:48;3.80;99.90
59923;DHT22;45778;51.142;3.732;2022-11-14T07:23:14;3.70;99.90
59923;DHT22;45778;51.142;3.732;2022-11-14T07:25:40;3.80;99.90
59923;DHT22;45778;51.142;3.732;2022-11-14T07:28:06;3.80;99.90
59923;DHT22;45778;51.142;3.732;2022-11-14T07:30:34;3.70;99.90
59923;DHT22;45778;51.142;3.732;2022-11-14T07:33:00;3.60;99.90
59923;DHT22;45778;51.142;3.732;2022-11-14T07:35:26;3.60;99.90
59923;DHT22;45778;51.142;3.732;2022-11-14T07:37:51;3.50;99.90
59923;DHT22;45778;51.142;3.732;2022-11-14T07:40:17;3.40;99.90
59923;DHT22;45778;51.142;3.732;2022-11-14T07:42:43;3.40;99.90
59923;DHT22;45778;51.142;3.732;2022-11-14T07:45:09;3.40;99.90
59923;DHT22;45778;51.142;3.732;2022-11-14T07:47:35;3.30;99.90
59923;DHT22;45778;51.142;3.732;2022-11-14T07:50:01;3.10;99.90
59923;DHT22;45778;51.142;3.732;2022-11-14T07:52:27;3.20;99.90
59923;DHT22;45778;51.142;3.732;2022-11-14T07:54:55;3.20;99.90
59923;DHT22;45778;51.142;3.732;2022-11-14T07:57:21;3.20;99.90
59923;DHT22;45778;51.142;3.732;2022-11-14T07:59:47;3.20;99.90
59923;DHT22;45778;51.142;3.732;2022-11-14T08:02:13;3.20;99.90
59923;DHT22;45778;51.142;3.732;2022-11-14T08:04:40;3.20;99.90
59923;DHT22;45778;51.142;3.732;2022-11-14T08:07:06;3.30;99.90
59923;DHT22;45778;51.142;3.732;2022-11-14T08:09:31;3.40;99.90
59923;DHT22;45778;51.142;3.732;2022-11-14T08:11:57;3.40;99.90
59923;DHT22;45778;51.142;3.732;2022-11-14T08:14:23;3.50;99.90
59923;DHT22;45778;51.142;3.732;2022-11-14T08:16:49;3.60;99.90
59923;DHT22;45778;51.142;3.732;2022-11-14T08:19:15;3.80;99.90
59923;DHT22;45778;51.142;3.732;2022-11-14T08:21:41;3.90;99.90
59923;DHT22;45778;51.142;3.732;2022-11-14T08:24:07;4.10;99.90
59923;DHT22;45778;51.142;3.732;2022-11-14T08:26:33;4.10;99.90
59923;DHT22;45778;51.142;3.732;2022-11-14T08:28:59;4.30;99.90
59923;DHT22;45778;51.142;3.732;2022-11-14T08:31:24;4.40;99.90
59923;DHT22;45778;51.142;3.732;2022-11-14T08:33:51;4.50;99.90
59923;DHT22;45778;51.142;3.732;2022-11-14T08:36:16;4.60;99.90
59923;DHT22;45778;51.142;3.732;2022-11-14T08:38:42;4.80;99.90
59923;DHT22;45778;51.142;3.732;2022-11-14T08:41:08;5.00;99.90
59923;DHT22;45778;51.142;3.732;2022-11-14T08:43:33;5.20;99.90
59923;DHT22;45778;51.142;3.732;2022-11-14T08:46:01;5.40;99.90
59923;DHT22;45778;51.142;3.732;2022-11-14T08:48:27;5.60;99.90
59923;DHT22;45778;51.142;3.732;2022-11-14T08:50:52;5.70;99.90
59923;DHT22;45778;51.142;3.732;2022-11-14T08:53:18;5.80;99.90
59923;DHT22;45778;51.142;3.732;2022-11-14T08:55:47;5.80;99.90
59923;DHT22;45778;51.142;3.732;2022-11-14T08:58:14;6.00;99.90
59923;DHT22;45778;51.142;3.732;2022-11-14T09:00:40;6.10;99.90
59923;DHT22;45778;51.142;3.732;2022-11-14T09:03:12;6.00;99.90
59923;DHT22;45778;51.142;3.732;2022-11-14T09:05:39;6.00;99.90
59923;DHT22;45778;51.142;3.732;2022-11-14T09:08:05;6.10;99.90
59923;DHT22;45778;51.142;3.732;2022-11-14T09:10:30;6.20;99.90
59923;DHT22;45778;51.142;3.732;2022-11-14T09:13:00;6.20;99.90
59923;DHT22;45778;51.142;3.732;2022-11-14T09:15:29;6.30;99.90
59923;DHT22;45778;51.142;3.732;2022-11-14T09:17:56;6.50;99.90
59923;DHT22;45778;51.142;3.732;2022-11-14T09:20:23;6.70;99.90
59923;DHT22;45778;51.142;3.732;2022-11-14T09:22:49;6.80;99.90
59923;DHT22;45778;51.142;3.732;2022-11-14T09:25:18;6.90;99.90
59923;DHT22;45778;51.142;3.732;2022-11-14T09:27:44;7.10;99.90
59923;DHT22;45778;51.142;3.732;2022-11-14T09:30:10;7.10;99.90
59923;DHT22;45778;51.142;3.732;2022-11-14T09:32:36;7.20;99.90
59923;DHT22;45778;51.142;3.732;2022-11-14T09:35:01;7.20;99.90
59923;DHT22;45778;51.142;3.732;2022-11-14T09:37:27;7.30;99.90
59923;DHT22;45778;51.142;3.732;2022-11-14T09:39:53;7.30;99.90
59923;DHT22;45778;51.142;3.732;2022-11-14T09:45:14;7.50;99.90
59923;DHT22;45778;51.142;3.732;2022-11-14T09:47:57;7.60;99.90
59923;DHT22;45778;51.142;3.732;2022-11-14T09:50:33;7.70;99.90
59923;DHT22;45778;51.142;3.732;2022-11-14T09:53:33;7.80;99.90
59923;DHT22;45778;51.142;3.732;2022-11-14T09:56:00;8.00;99.90
59923;DHT22;45778;51.142;3.732;2022-11-14T09:58:26;8.10;99.90
59923;DHT22;45778;51.142;3.732;2022-11-14T10:01:04;8.00;99.90
59923;DHT22;45778;51.142;3.732;2022-11-14T10:04:21;8.00;99.90
59923;DHT22;45778;51.142;3.732;2022-11-14T10:06:57;8.00;99.90
59923;DHT22;45778;51.142;3.732;2022-11-14T10:09:49;8.20;99.90
59923;DHT22;45778;51.142;3.732;2022-11-14T10:12:51;8.50;99.90
59923;DHT22;45778;51.142;3.732;2022-11-14T10:15:36;8.50;99.90
59923;DHT22;45778;51.142;3.732;2022-11-14T10:18:37;8.40;99.90
59923;DHT22;45778;51.142;3.732;2022-11-14T10:21:37;8.50;99.90
59923;DHT22;45778;51.142;3.732;2022-11-14T10:27:02;8.50;99.90
59923;DHT22;45778;51.142;3.732;2022-11-14T10:35:14;8.90;99.90
59923;DHT22;45778;51.142;3.732;2022-11-14T10:40:37;9.10;99.90
59923;DHT22;45778;51.142;3.732;2022-11-14T10:49:19;9.20;99.90
59923;DHT22;45778;51.142;3.732;2022-11-14T10:51:56;9.30;99.90
59923;DHT22;45778;51.142;3.732;2022-11-14T10:56:55;9.30;99.90
59923;DHT22;45778;51.142;3.732;2022-11-14T10:59:21;9.40;99.90
59923;DHT22;45778;51.142;3.732;2022-11-14T11:04:32;9.50;99.90
59923;DHT22;45778;51.142;3.732;2022-11-14T11:09:35;9.60;99.90
59923;DHT22;45778;51.142;3.732;2022-11-14T11:12:24;9.70;99.90
59923;DHT22;45778;51.142;3.732;2022-11-14T11:15:14;9.70;99.90
59923;DHT22;45778;51.142;3.732;2022-11-14T11:17:57;9.70;99.90
59923;DHT22;45778;51.142;3.732;2022-11-14T11:25:38;9.70;99.90
59923;DHT22;45778;51.142;3.732;2022-11-14T11:28:14;9.80;99.90
59923;DHT22;45778;51.142;3.732;2022-11-14T11:33:48;9.80;99.90
59923;DHT22;45778;51.142;3.732;2022-11-14T11:36:19;9.80;99.90
59923;DHT22;45778;51.142;3.732;2022-11-14T11:38:45;9.60;99.90
59923;DHT22;45778;51.142;3.732;2022-11-14T11:41:22;9.60;99.90
59923;DHT22;45778;51.142;3.732;2022-11-14T11:43:54;9.70;99.90
59923;DHT22;45778;51.142;3.732;2022-11-14T11:51:54;10.30;99.90
59923;DHT22;45778;51.142;3.732;2022-11-14T11:54:28;10.50;99.90
59923;DHT22;45778;51.142;3.732;2022-11-14T11:56:59;10.90;99.90
59923;DHT22;45778;51.142;3.732;2022-11-14T11:59:45;11.20;99.90
59923;DHT22;45778;51.142;3.732;2022-11-14T12:02:27;11.80;99.90
59923;DHT22;45778;51.142;3.732;2022-11-14T12:04:55;12.50;99.90
59923;DHT22;45778;51.142;3.732;2022-11-14T12:07:45;13.00;99.90
59923;DHT22;45778;51.142;3.732;2022-11-14T12:10:20;13.50;99.90
59923;DHT22;45778;51.142;3.732;2022-11-14T12:16:10;13.80;99.90
59923;DHT22;45778;51.142;3.732;2022-11-14T12:27:14;11.50;99.90
59923;DHT22;45778;51.142;3.732;2022-11-14T12:29:47;11.80;99.90
59923;DHT22;45778;51.142;3.732;2022-11-14T12:32:27;12.70;99.90
59923;DHT22;45778;51.142;3.732;2022-11-14T12:34:54;12.40;99.90
59923;DHT22;45778;51.142;3.732;2022-11-14T12:37:36;11.50;99.90
59923;DHT22;45778;51.142;3.732;2022-11-14T12:40:05;10.90;99.90
59923;DHT22;45778;51.142;3.732;2022-11-14T12:42:32;10.20;99.90
59923;DHT22;45778;51.142;3.732;2022-11-14T12:44:58;9.60;99.90
59923;DHT22;45778;51.142;3.732;2022-11-14T12:47:25;9.00;99.90
59923;DHT22;45778;51.142;3.732;2022-11-14T12:52:46;9.00;99.90
59923;DHT22;45778;51.142;3.732;2022-11-14T13:00:25;8.30;99.90
59923;DHT22;45778;51.142;3.732;2022-11-14T13:10:58;7.10;99.90
59923;DHT22;45778;51.142;3.732;2022-11-14T13:13:24;7.00;99.90
59923;DHT22;45778;51.142;3.732;2022-11-14T13:16:25;6.90;99.90
59923;DHT22;45778;51.142;3.732;2022-11-14T13:19:19;6.70;99.90
59923;DHT22;45778;51.142;3.732;2022-11-14T13:27:30;7.00;99.90
59923;DHT22;45778;51.142;3.732;2022-11-14T13:29:57;6.80;99.90
59923;DHT22;45778;51.142;3.732;2022-11-14T13:38:02;6.70;99.90
59923;DHT22;45778;51.142;3.732;2022-11-14T13:40:32;6.90;99.90
59923;DHT22;45778;51.142;3.732;2022-11-14T13:46:00;7.10;99.90
59923;DHT22;45778;51.142;3.732;2022-11-14T13:51:46;6.80;99.90
59923;DHT22;45778;51.142;3.732;2022-11-14T13:54:13;6.60;99.90
59923;DHT22;45778;51.142;3.732;2022-11-14T14:12:31;6.70;99.90
59923;DHT22;45778;51.142;3.732;2022-11-14T14:25:59;6.60;99.90
59923;DHT22;45778;51.142;3.732;2022-11-14T14:29:05;6.40;99.90
59923;DHT22;45778;51.142;3.732;2022-11-14T14:31:40;6.30;99.90
59923;DHT22;45778;51.142;3.732;2022-11-14T14:34:23;6.30;99.90
59923;DHT22;45778;51.142;3.732;2022-11-14T14:36:53;6.20;99.90
59923;DHT22;45778;51.142;3.732;2022-11-14T14:41:47;6.50;99.90
59923;DHT22;45778;51.142;3.732;2022-11-14T14:46:43;6.40;99.90
59923;DHT22;45778;51.142;3.732;2022-11-14T14:49:09;6.20;99.90
59923;DHT22;45778;51.142;3.732;2022-11-14T14:51:36;6.30;99.90
59923;DHT22;45778;51.142;3.732;2022-11-14T14:54:03;6.10;99.90
59923;DHT22;45778;51.142;3.732;2022-11-14T14:56:32;6.10;99.90
59923;DHT22;45778;51.142;3.732;2022-11-14T14:58:57;6.10;99.90
59923;DHT22;45778;51.142;3.732;2022-11-14T15:01:33;6.10;99.90
59923;DHT22;45778;51.142;3.732;2022-11-14T15:04:05;6.20;99.90
59923;DHT22;45778;51.142;3.732;2022-11-14T15:06:34;6.00;99.90
59923;DHT22;45778;51.142;3.732;2022-11-14T15:11:45;6.00;99.90
59923;DHT22;45778;51.142;3.732;2022-11-14T15:14:17;6.10;99.90
59923;DHT22;45778;51.142;3.732;2022-11-14T15:16:44;6.30;99.90
59923;DHT22;45778;51.142;3.732;2022-11-14T15:19:19;6.20;99.90
59923;DHT22;45778;51.142;3.732;2022-11-14T15:22:22;6.10;99.90
59923;DHT22;45778;51.142;3.732;2022-11-14T15:27:53;6.20;99.90
59923;DHT22;45778;51.142;3.732;2022-11-14T15:30:25;6.30;99.90
59923;DHT22;45778;51.142;3.732;2022-11-14T15:32:58;6.30;99.90
59923;DHT22;45778;51.142;3.732;2022-11-14T15:35:31;6.30;99.90
59923;DHT22;45778;51.142;3.732;2022-11-14T15:40:37;6.20;99.90
59923;DHT22;45778;51.142;3.732;2022-11-14T15:46:25;6.20;99.90
59923;DHT22;45778;51.142;3.732;2022-11-14T15:48:51;6.20;99.90
59923;DHT22;45778;51.142;3.732;2022-11-14T15:51:17;6.30;99.90
59923;DHT22;45778;51.142;3.732;2022-11-14T15:53:47;6.20;99.90
59923;DHT22;45778;51.142;3.732;2022-11-14T15:56:14;6.20;99.90
59923;DHT22;45778;51.142;3.732;2022-11-14T15:58:39;6.30;99.90
59923;DHT22;45778;51.142;3.732;2022-11-14T16:01:12;6.20;99.90
59923;DHT22;45778;51.142;3.732;2022-11-14T16:03:44;6.20;99.90
59923;DHT22;45778;51.142;3.732;2022-11-14T16:06:12;6.20;99.90
59923;DHT22;45778;51.142;3.732;2022-11-14T16:08:38;6.20;99.90
59923;DHT22;45778;51.142;3.732;2022-11-14T16:11:04;6.20;99.90
59923;DHT22;45778;51.142;3.732;2022-11-14T16:13:29;6.10;99.90
59923;DHT22;45778;51.142;3.732;2022-11-14T16:15:55;6.20;99.90
59923;DHT22;45778;51.142;3.732;2022-11-14T16:18:21;6.30;99.90
59923;DHT22;45778;51.142;3.732;2022-11-14T16:20:46;6.50;99.90
59923;DHT22;45778;51.142;3.732;2022-11-14T16:23:12;6.50;99.90
59923;DHT22;45778;51.142;3.732;2022-11-14T16:25:38;6.50;99.90
59923;DHT22;45778;51.142;3.732;2022-11-14T16:28:03;6.60;99.90
59923;DHT22;45778;51.142;3.732;2022-11-14T16:30:29;6.40;99.90
59923;DHT22;45778;51.142;3.732;2022-11-14T16:32:55;6.40;99.90
59923;DHT22;45778;51.142;3.732;2022-11-14T16:35:23;6.30;99.90
59923;DHT22;45778;51.142;3.732;2022-11-14T16:37:49;6.30;99.90
59923;DHT22;45778;51.142;3.732;2022-11-14T16:40:23;6.30;99.90
59923;DHT22;45778;51.142;3.732;2022-11-14T16:42:54;6.20;99.90
59923;DHT22;45778;51.142;3.732;2022-11-14T16:45:20;6.50;99.90
59923;DHT22;45778;51.142;3.732;2022-11-14T16:47:47;6.40;99.90
59923;DHT22;45778;51.142;3.732;2022-11-14T16:50:13;6.40;99.90
59923;DHT22;45778;51.142;3.732;2022-11-14T16:52:38;6.50;99.90
59923;DHT22;45778;51.142;3.732;2022-11-14T16:55:06;6.40;99.90
59923;DHT22;45778;51.142;3.732;2022-11-14T16:57:32;6.50;99.90
59923;DHT22;45778;51.142;3.732;2022-11-14T16:59:57;6.60;99.90
59923;DHT22;45778;51.142;3.732;2022-11-14T17:02:23;6.80;99.90
59923;DHT22;45778;51.142;3.732;2022-11-14T17:04:49;6.60;99.90
59923;DHT22;45778;51.142;3.732;2022-11-14T17:07:15;6.60;99.90
59923;DHT22;45778;51.142;3.732;2022-11-14T17:09:41;6.60;99.90
59923;DHT22;45778;51.142;3.732;2022-11-14T17:12:07;6.60;99.90
59923;DHT22;45778;51.142;3.732;2022-11-14T17:14:33;6.60;99.90
59923;DHT22;45778;51.142;3.732;2022-11-14T17:16:59;6.70;99.90
59923;DHT22;45778;51.142;3.732;2022-11-14T17:19:24;6.60;99.90
59923;DHT22;45778;51.142;3.732;2022-11-14T17:21:50;6.60;99.90
59923;DHT22;45778;51.142;3.732;2022-11-14T17:24:16;6.60;99.90
59923;DHT22;45778;51.142;3.732;2022-11-14T17:26:42;6.60;99.90
59923;DHT22;45778;51.142;3.732;2022-11-14T17:29:07;6.60;99.90
59923;DHT22;45778;51.142;3.732;2022-11-14T17:31:34;6.80;99.90
59923;DHT22;45778;51.142;3.732;2022-11-14T17:34:00;6.70;99.90
59923;DHT22;45778;51.142;3.732;2022-11-14T17:36:28;6.80;99.90
59923;DHT22;45778;51.142;3.732;2022-11-14T17:38:57;6.70;99.90
59923;DHT22;45778;51.142;3.732;2022-11-14T17:41:23;6.70;99.90
59923;DHT22;45778;51.142;3.732;2022-11-14T17:43:53;6.70;99.90
59923;DHT22;45778;51.142;3.732;2022-11-14T17:46:21;6.70;99.90
59923;DHT22;45778;51.142;3.732;2022-11-14T17:48:47;6.80;99.90
59923;DHT22;45778;51.142;3.732;2022-11-14T17:51:14;6.90;99.90
59923;DHT22;45778;51.142;3.732;2022-11-14T17:53:41;6.80;99.90
59923;DHT22;45778;51.142;3.732;2022-11-14T17:56:11;6.80;99.90
59923;DHT22;45778;51.142;3.732;2022-11-14T17:58:37;6.80;99.90
59923;DHT22;45778;51.142;3.732;2022-11-14T18:01:09;6.80;99.90
59923;DHT22;45778;51.142;3.732;2022-11-14T18:03:34;6.80;99.90
59923;DHT22;45778;51.142;3.732;2022-11-14T18:06:10;6.90;99.90
59923;DHT22;45778;51.142;3.732;2022-11-14T18:08:36;6.80;99.90